createdAt,value
2022-08-01T00:00:11.104Z,1.58
2022-08-01T00:02:59.072Z,1.65
2022-08-01T00:05:27.061Z,1.75
2022-08-01T00:07:54.815Z,1.85
2022-08-01T00:10:22.792Z,1.88
2022-08-01T00:12:50.595Z,1.55
2022-08-01T00:15:19.867Z,1.63
2022-08-01T00:17:47.455Z,2.03
2022-08-01T00:20:16.152Z,1.90
2022-08-01T00:22:43.779Z,1.88
2022-08-01T00:25:11.630Z,1.83
2022-08-01T00:27:39.425Z,2.50
2022-08-01T00:30:12.761Z,2.17
2022-08-01T00:32:43.792Z,1.70
2022-08-01T00:35:12.109Z,2.20
2022-08-01T00:37:39.613Z,1.80
2022-08-01T00:40:08.795Z,2.00
2022-08-01T00:42:40.279Z,1.92
2022-08-01T00:45:12.650Z,2.05
2022-08-01T00:47:41.009Z,1.88
2022-08-01T00:50:10.320Z,2.00
2022-08-01T00:52:41.406Z,1.90
2022-08-01T00:55:14.986Z,1.90
2022-08-01T00:58:03.504Z,1.60
2022-08-01T01:00:34.535Z,1.92
2022-08-01T01:03:57.630Z,1.90
2022-08-01T01:07:04.772Z,1.55
2022-08-01T01:09:53.867Z,2.15
2022-08-01T01:12:53.361Z,1.65
2022-08-01T01:15:37.347Z,1.63
2022-08-01T01:18:09.703Z,1.58
2022-08-01T01:20:42.353Z,1.67
2022-08-01T01:23:52.788Z,1.70
2022-08-01T01:26:32.022Z,1.45
2022-08-01T01:29:17.542Z,1.63
2022-08-01T01:31:55.325Z,1.27
2022-08-01T01:34:26.064Z,1.60
2022-08-01T01:36:59.309Z,1.33
2022-08-01T01:39:31.156Z,1.70
2022-08-01T01:42:02.929Z,1.60
2022-08-01T01:44:32.588Z,1.60
2022-08-01T01:47:02.806Z,1.63
2022-08-01T01:49:34.008Z,1.52
2022-08-01T01:52:05.443Z,1.80
2022-08-01T01:54:42.081Z,1.50
2022-08-01T01:57:12.836Z,1.40
2022-08-01T01:59:42.610Z,1.15
2022-08-01T02:02:12.587Z,1.33
2022-08-01T02:07:21.870Z,1.10
2022-08-01T02:09:50.565Z,1.40
2022-08-01T02:12:22.681Z,1.67
2022-08-01T02:14:54.636Z,2.15
2022-08-01T02:17:25.808Z,1.23
2022-08-01T02:19:55.450Z,1.63
2022-08-01T02:22:47.645Z,1.33
2022-08-01T02:25:26.894Z,1.13
2022-08-01T02:28:17.114Z,1.20
2022-08-01T02:30:51.043Z,1.33
2022-08-01T02:33:24.686Z,1.30
2022-08-01T02:36:30.325Z,1.20
2022-08-01T02:38:50.092Z,1.58
2022-08-01T02:41:25.869Z,1.30
2022-08-01T02:43:59.031Z,1.20
2022-08-01T02:46:53.814Z,1.20
2022-08-01T02:49:25.129Z,1.38
2022-08-01T02:51:57.061Z,1.25
2022-08-01T02:54:26.868Z,1.10
2022-08-01T02:59:28.754Z,1.30
2022-08-01T03:02:01.332Z,1.20
2022-08-01T03:04:34.496Z,1.20
2022-08-01T03:07:07.288Z,1.30
2022-08-01T03:09:41.470Z,1.30
2022-08-01T03:12:18.333Z,1.40
2022-08-01T03:14:50.952Z,1.50
2022-08-01T03:17:23.628Z,1.35
2022-08-01T03:19:53.550Z,1.33
2022-08-01T03:22:25.748Z,1.20
2022-08-01T03:24:57.344Z,1.02
2022-08-01T03:27:26.636Z,1.02
2022-08-01T03:29:58.156Z,1.00
2022-08-01T03:32:29.409Z,1.50
2022-08-01T03:34:58.333Z,1.23
2022-08-01T03:37:37.841Z,1.10
2022-08-01T03:40:36.705Z,1.15
2022-08-01T03:43:16.583Z,1.00
2022-08-01T03:45:52.508Z,0.98
2022-08-01T03:48:29.109Z,1.23
2022-08-01T03:51:00.422Z,1.52
2022-08-01T03:53:33.103Z,1.30
2022-08-01T03:56:03.949Z,1.15
2022-08-01T03:58:32.673Z,1.38
2022-08-01T04:01:00.793Z,1.05
2022-08-01T04:03:29.315Z,1.45
2022-08-01T04:05:57.168Z,1.30
2022-08-01T04:08:34.580Z,1.05
2022-08-01T04:11:02.981Z,1.25
2022-08-01T04:13:37.039Z,1.52
2022-08-01T04:16:06.135Z,1.05
2022-08-01T04:18:33.803Z,1.50
2022-08-01T04:21:05.863Z,1.00
2022-08-01T04:23:40.778Z,1.17
2022-08-01T04:26:11.983Z,0.90
2022-08-01T04:28:43.853Z,1.15
2022-08-01T04:31:16.798Z,1.10
2022-08-01T04:33:50.871Z,1.08
2022-08-01T04:36:24.156Z,1.10
2022-08-01T04:38:58.926Z,1.00
2022-08-01T04:41:27.310Z,1.10
2022-08-01T04:43:56.104Z,0.88
2022-08-01T04:46:24.264Z,1.20
2022-08-01T04:48:52.770Z,1.20
2022-08-01T04:51:23.125Z,1.20
2022-08-01T04:53:54.195Z,1.00
2022-08-01T04:56:22.274Z,1.30
2022-08-01T04:59:10.027Z,1.38
2022-08-01T05:01:51.726Z,1.33
2022-08-01T05:04:19.633Z,1.10
2022-08-01T05:06:47.404Z,0.90
2022-08-01T05:09:14.964Z,0.93
2022-08-01T05:11:42.536Z,1.10
2022-08-01T05:14:10.395Z,1.05
2022-08-01T05:16:38.069Z,1.30
2022-08-01T05:19:05.870Z,1.10
2022-08-01T05:21:33.930Z,1.05
2022-08-01T05:24:01.632Z,1.30
2022-08-01T05:26:29.808Z,1.40
2022-08-01T05:31:29.274Z,0.98
2022-08-01T05:33:57.117Z,0.90
2022-08-01T05:36:25.079Z,1.23
2022-08-01T05:38:52.733Z,0.98
2022-08-01T05:41:21.496Z,0.95
2022-08-01T05:43:49.653Z,1.27
2022-08-01T05:46:17.750Z,1.30
2022-08-01T05:48:45.511Z,0.90
2022-08-01T05:51:13.491Z,0.95
2022-08-01T05:53:41.610Z,1.23
2022-08-01T05:56:09.401Z,1.35
2022-08-01T05:58:37.443Z,2.15
2022-08-01T06:01:05.097Z,1.50
2022-08-01T06:03:34.531Z,1.50
2022-08-01T06:06:04.064Z,1.10
2022-08-01T06:08:32.519Z,1.60
2022-08-01T06:11:00.612Z,1.50
2022-08-01T06:13:28.874Z,1.20
2022-08-01T06:15:56.946Z,1.10
2022-08-01T06:18:24.846Z,1.08
2022-08-01T06:20:53.348Z,0.98
2022-08-01T06:23:32.816Z,0.75
2022-08-01T06:28:29.528Z,0.90
2022-08-01T06:30:59.523Z,1.10
2022-08-01T06:33:28.791Z,0.90
2022-08-01T06:35:56.526Z,0.73
2022-08-01T06:38:25.354Z,1.35
2022-08-01T06:40:53.178Z,0.73
2022-08-01T06:43:20.707Z,0.90
2022-08-01T06:45:48.834Z,1.08
2022-08-01T06:48:16.833Z,1.13
2022-08-01T06:50:44.595Z,1.10
2022-08-01T06:53:12.271Z,0.98
2022-08-01T06:55:40.103Z,0.80
2022-08-01T06:58:07.633Z,1.00
2022-08-01T07:00:35.309Z,0.88
2022-08-01T07:03:03.253Z,1.02
2022-08-01T07:05:33.455Z,1.00
2022-08-01T07:08:01.048Z,1.38
2022-08-01T07:10:28.924Z,1.67
2022-08-01T07:12:56.504Z,1.30
2022-08-01T07:15:27.563Z,1.00
2022-08-01T07:17:55.846Z,1.23
2022-08-01T07:20:23.811Z,1.02
2022-08-01T07:22:51.345Z,0.85
2022-08-01T07:25:19.254Z,0.82
2022-08-01T07:27:47.269Z,1.00
2022-08-01T07:30:14.995Z,0.65
2022-08-01T07:32:43.032Z,0.80
2022-08-01T07:35:11.287Z,0.70
2022-08-01T07:37:45.303Z,0.60
2022-08-01T07:40:21.270Z,0.60
2022-08-01T07:42:48.842Z,0.60
2022-08-01T07:45:16.868Z,0.68
2022-08-01T07:47:44.899Z,0.93
2022-08-01T07:50:13.825Z,0.70
2022-08-01T07:52:41.824Z,1.27
2022-08-01T07:55:11.939Z,0.50
2022-08-01T07:57:45.013Z,0.60
2022-08-01T08:00:15.423Z,0.65
2022-08-01T08:02:43.789Z,0.55
2022-08-01T08:05:12.577Z,0.63
2022-08-01T08:07:40.531Z,0.70
2022-08-01T08:10:09.026Z,0.63
2022-08-01T08:12:36.771Z,0.60
2022-08-01T08:15:06.906Z,0.70
2022-08-01T08:17:35.598Z,1.10
2022-08-01T08:20:09.775Z,0.82
2022-08-01T08:22:38.798Z,1.48
2022-08-01T08:25:08.196Z,0.93
2022-08-01T08:27:38.254Z,1.00
2022-08-01T08:30:12.343Z,0.98
2022-08-01T08:32:41.142Z,1.00
2022-08-01T08:35:11.930Z,0.82
2022-08-01T08:37:47.776Z,2.67
2022-08-01T08:40:18.113Z,1.15
2022-08-01T08:42:47.523Z,0.80
2022-08-01T08:45:16.702Z,0.60
2022-08-01T08:50:15.658Z,0.70
2022-08-01T08:52:47.302Z,1.98
2022-08-01T08:55:18.080Z,1.08
2022-08-01T08:57:48.624Z,0.70
2022-08-01T09:00:17.427Z,0.77
2022-08-01T09:02:48.177Z,1.02
2022-08-01T09:05:19.931Z,0.55
2022-08-01T09:07:48.135Z,0.73
2022-08-01T09:10:16.079Z,1.02
2022-08-01T09:13:14.674Z,0.60
2022-08-01T09:15:47.028Z,1.15
2022-08-01T09:18:41.563Z,0.80
2022-08-01T09:21:20.467Z,0.50
2022-08-01T09:23:55.892Z,1.17
2022-08-01T09:26:34.006Z,0.80
2022-08-01T09:29:06.602Z,0.80
2022-08-01T09:31:47.570Z,0.70
2022-08-01T09:34:24.588Z,1.00
2022-08-01T09:36:57.045Z,0.82
2022-08-01T09:39:27.167Z,0.98
2022-08-01T09:42:00.468Z,0.90
2022-08-01T09:44:55.149Z,0.80
2022-08-01T09:47:38.810Z,0.70
2022-08-01T09:50:11.044Z,0.75
2022-08-01T09:52:41.200Z,1.08
2022-08-01T09:55:11.092Z,0.85
2022-08-01T10:00:43.774Z,0.82
2022-08-01T10:03:28.386Z,1.00
2022-08-01T10:05:58.167Z,0.77
2022-08-01T10:08:26.861Z,0.80
2022-08-01T10:11:13.021Z,0.88
2022-08-01T10:13:44.739Z,1.42
2022-08-01T10:16:15.811Z,0.80
2022-08-01T10:18:46.824Z,1.05
2022-08-01T10:21:16.004Z,0.75
2022-08-01T10:24:06.645Z,0.95
2022-08-01T10:26:36.935Z,1.15
2022-08-01T10:29:45.274Z,1.20
2022-08-01T10:34:31.477Z,0.80
2022-08-01T10:37:00.231Z,0.95
2022-08-01T10:39:31.111Z,1.00
2022-08-01T10:42:05.849Z,1.08
2022-08-01T10:44:39.454Z,0.80
2022-08-01T10:47:27.012Z,1.10
2022-08-01T10:50:26.240Z,1.08
2022-08-01T10:53:16.413Z,0.73
2022-08-01T10:56:04.423Z,1.00
2022-08-01T10:58:42.697Z,0.80
2022-08-01T11:01:20.444Z,1.00
2022-08-01T11:04:16.999Z,0.80
2022-08-01T11:07:07.697Z,1.00
2022-08-01T11:09:51.789Z,1.00
2022-08-01T11:12:23.200Z,0.90
2022-08-01T11:15:03.400Z,0.60
2022-08-01T11:17:50.236Z,0.95
2022-08-01T11:20:34.646Z,0.95
2022-08-01T11:23:07.958Z,1.20
2022-08-01T11:26:04.007Z,1.00
2022-08-01T11:28:33.284Z,1.15
2022-08-01T11:31:11.827Z,1.33
2022-08-01T11:33:47.106Z,1.02
2022-08-01T11:36:18.124Z,0.98
2022-08-01T11:39:01.398Z,0.68
2022-08-01T11:41:38.311Z,1.00
2022-08-01T11:44:13.579Z,1.10
2022-08-01T11:46:56.627Z,0.85
2022-08-01T11:49:41.733Z,1.27
2022-08-01T11:52:17.214Z,0.98
2022-08-01T11:54:59.017Z,1.35
2022-08-01T11:57:36.200Z,1.08
2022-08-01T12:00:15.325Z,0.80
2022-08-01T12:02:47.852Z,1.00
2022-08-01T12:05:24.803Z,1.17
2022-08-01T12:07:54.718Z,1.00
2022-08-01T12:10:26.650Z,0.98
2022-08-01T12:13:00.460Z,0.90
2022-08-01T12:15:34.376Z,0.88
2022-08-01T12:18:05.966Z,1.00
2022-08-01T12:20:38.215Z,1.35
2022-08-01T12:23:13.186Z,1.08
2022-08-01T12:25:44.975Z,1.23
2022-08-01T12:28:16.566Z,1.08
2022-08-01T12:30:44.615Z,0.85
2022-08-01T12:33:20.459Z,1.17
2022-08-01T12:35:49.547Z,1.13
2022-08-01T12:38:28.025Z,1.30
2022-08-01T12:40:57.046Z,1.42
2022-08-01T12:43:27.939Z,1.30
2022-08-01T12:46:01.990Z,1.00
2022-08-01T12:48:32.764Z,0.93
2022-08-01T12:51:03.623Z,1.33
2022-08-01T12:53:40.273Z,1.30
2022-08-01T12:56:12.113Z,1.40
2022-08-01T12:58:40.839Z,1.10
2022-08-01T13:01:14.374Z,1.13
2022-08-01T13:03:59.168Z,1.30
2022-08-01T13:06:31.595Z,0.90
2022-08-01T13:09:14.542Z,1.40
2022-08-01T13:11:58.911Z,1.00
2022-08-01T13:14:32.302Z,1.73
2022-08-01T13:17:00.008Z,2.30
2022-08-01T13:19:44.770Z,1.52
2022-08-01T13:22:12.765Z,1.50
2022-08-01T13:24:40.498Z,1.40
2022-08-01T13:27:08.239Z,1.10
2022-08-01T13:29:42.624Z,1.00
2022-08-01T13:32:27.732Z,0.98
2022-08-01T13:35:09.956Z,1.00
2022-08-01T13:37:39.491Z,0.98
2022-08-01T13:40:10.544Z,3.10
2022-08-01T13:42:39.459Z,1.33
2022-08-01T13:45:14.577Z,1.00
2022-08-01T13:48:11.737Z,1.98
2022-08-01T13:50:35.285Z,1.27
2022-08-01T13:53:03.760Z,1.20
2022-08-01T13:55:35.327Z,1.00
2022-08-01T13:58:04.249Z,1.40
2022-08-01T14:00:32.231Z,0.90
2022-08-01T14:03:00.376Z,1.35
2022-08-01T14:05:28.547Z,1.90
2022-08-01T14:07:56.869Z,1.48
2022-08-01T14:10:28.111Z,0.95
2022-08-01T14:12:59.993Z,1.48
2022-08-01T14:15:38.569Z,1.25
2022-08-01T14:18:10.641Z,0.97
2022-08-01T14:20:40.468Z,0.93
2022-08-01T14:23:09.504Z,1.17
2022-08-01T14:26:03.834Z,0.98
2022-08-01T14:28:35.421Z,0.77
2022-08-01T14:31:04.339Z,1.27
2022-08-01T14:33:32.367Z,1.60
2022-08-01T14:36:28.466Z,1.35
2022-08-01T14:38:50.560Z,1.45
2022-08-01T14:41:18.478Z,1.20
2022-08-01T14:43:46.715Z,1.27
2022-08-01T14:46:15.154Z,1.10
2022-08-01T14:48:43.882Z,1.20
2022-08-01T14:51:11.845Z,1.15
2022-08-01T14:53:44.201Z,1.20
2022-08-01T14:56:15.220Z,1.65
2022-08-01T14:58:43.720Z,1.10
2022-08-01T15:01:11.960Z,0.80
2022-08-01T15:03:39.856Z,1.25
2022-08-01T15:06:08.113Z,1.20
2022-08-01T15:08:36.546Z,1.00
2022-08-01T15:11:04.695Z,0.90
2022-08-01T15:13:33.162Z,1.00
2022-08-01T15:16:01.389Z,1.42
2022-08-01T15:18:30.312Z,7.43
2022-08-01T15:21:02.861Z,1.42
2022-08-01T15:23:30.705Z,1.20
2022-08-01T15:25:58.529Z,2.60
2022-08-01T15:28:27.242Z,2.58
2022-08-01T15:30:55.392Z,2.67
2022-08-01T15:33:23.324Z,1.23
2022-08-01T15:35:52.867Z,1.50
2022-08-01T15:38:22.590Z,1.48
2022-08-01T15:40:50.671Z,1.05
2022-08-01T15:43:18.985Z,1.00
2022-08-01T15:45:48.427Z,1.38
2022-08-01T15:48:18.116Z,1.20
2022-08-01T15:50:46.774Z,1.67
2022-08-01T15:53:14.678Z,2.78
2022-08-01T15:55:48.849Z,1.90
2022-08-01T15:58:21.567Z,1.40
2022-08-01T16:00:49.732Z,1.60
2022-08-01T16:03:18.485Z,1.15
2022-08-01T16:05:46.635Z,1.15
2022-08-01T16:08:14.832Z,1.65
2022-08-01T16:10:43.426Z,1.75
2022-08-01T16:13:12.206Z,1.33
2022-08-01T16:15:40.577Z,1.35
2022-08-01T16:18:13.384Z,1.42
2022-08-01T16:20:45.845Z,1.23
2022-08-01T16:23:17.151Z,1.60
2022-08-01T16:25:45.342Z,1.20
2022-08-01T16:28:14.561Z,1.08
2022-08-01T16:30:48.784Z,1.23
2022-08-01T16:33:45.792Z,0.93
2022-08-01T16:36:17.865Z,1.10
2022-08-01T16:38:46.315Z,1.33
2022-08-01T16:41:19.966Z,1.08
2022-08-01T16:43:54.027Z,1.00
2022-08-01T16:46:25.026Z,1.08
2022-08-01T16:48:54.544Z,1.00
2022-08-01T16:51:22.771Z,0.98
2022-08-01T16:53:50.859Z,1.10
2022-08-01T16:56:20.227Z,1.13
2022-08-01T16:58:48.351Z,1.42
2022-08-01T17:01:58.263Z,1.25
2022-08-01T17:04:07.325Z,1.20
2022-08-01T17:06:35.260Z,1.00
2022-08-01T17:09:04.741Z,1.42
2022-08-01T17:14:02.841Z,1.00
2022-08-01T17:16:33.454Z,0.80
2022-08-01T17:19:05.611Z,2.13
2022-08-01T17:21:33.855Z,2.60
2022-08-01T17:24:01.626Z,4.30
2022-08-01T17:26:30.035Z,2.00
2022-08-01T17:28:58.274Z,1.27
2022-08-01T17:31:26.505Z,1.15
2022-08-01T17:33:55.437Z,1.20
2022-08-01T17:36:24.295Z,1.20
2022-08-01T17:38:53.096Z,1.87
2022-08-01T17:41:22.187Z,3.25
2022-08-01T17:43:51.136Z,3.85
2022-08-01T17:46:19.123Z,2.97
2022-08-01T17:48:47.346Z,1.77
2022-08-01T17:51:19.434Z,2.35
2022-08-01T17:53:57.410Z,5.72
2022-08-01T17:56:27.979Z,4.43
2022-08-01T17:58:57.234Z,2.90
2022-08-01T18:01:27.022Z,3.58
2022-08-01T18:03:57.908Z,16.10
2022-08-01T18:06:28.551Z,1.88
2022-08-01T18:08:56.645Z,1.20
2022-08-01T18:11:37.665Z,1.45
2022-08-01T18:14:06.737Z,1.65
2022-08-01T18:16:35.380Z,1.67
2022-08-01T18:19:05.027Z,4.22
2022-08-01T18:24:02.860Z,4.03
2022-08-01T18:26:31.536Z,4.10
2022-08-01T18:29:00.320Z,1.90
2022-08-01T18:31:28.727Z,1.92
2022-08-01T18:33:56.545Z,1.70
2022-08-01T18:36:33.453Z,1.55
2022-08-01T18:39:10.379Z,1.45
2022-08-01T18:41:39.999Z,2.60
2022-08-01T18:44:09.374Z,2.58
2022-08-01T18:46:39.887Z,2.15
2022-08-01T18:49:12.257Z,1.90
2022-08-01T18:51:44.760Z,1.70
2022-08-01T18:54:15.583Z,1.88
2022-08-01T18:56:45.592Z,8.45
2022-08-01T19:01:42.596Z,19.00
2022-08-01T19:04:11.331Z,7.63
2022-08-01T19:06:40.298Z,6.25
2022-08-01T19:09:09.600Z,5.18
2022-08-01T19:11:38.468Z,4.50
2022-08-01T19:14:06.816Z,4.13
2022-08-01T19:16:35.499Z,5.70
2022-08-01T19:19:07.287Z,13.43
2022-08-01T19:21:41.483Z,31.20
2022-08-01T19:24:23.846Z,19.10
2022-08-01T19:26:56.672Z,13.48
2022-08-01T19:29:36.264Z,14.63
2022-08-01T19:32:10.396Z,8.30
2022-08-01T19:35:08.850Z,5.85
2022-08-01T19:37:44.317Z,4.47
2022-08-01T19:40:27.611Z,4.50
2022-08-01T19:42:57.686Z,5.45
2022-08-01T19:45:30.283Z,4.13
2022-08-01T19:48:00.871Z,3.90
2022-08-01T19:50:33.449Z,3.50
2022-08-01T19:53:04.272Z,3.00
2022-08-01T19:55:39.598Z,3.05
2022-08-01T19:58:28.378Z,3.28
2022-08-01T20:00:59.119Z,2.65
2022-08-01T20:03:34.689Z,3.05
2022-08-01T20:06:06.519Z,3.00
2022-08-01T20:08:36.800Z,3.35
2022-08-01T20:11:14.640Z,2.90
2022-08-01T20:13:45.838Z,4.70
2022-08-01T20:16:15.457Z,3.80
2022-08-01T20:18:48.431Z,3.88
2022-08-01T20:21:18.802Z,3.03
2022-08-01T20:23:51.222Z,3.40
2022-08-01T20:26:22.749Z,2.63
2022-08-01T20:28:56.536Z,2.40
2022-08-01T20:31:33.953Z,2.13
2022-08-01T20:34:18.644Z,2.20
2022-08-01T20:36:56.816Z,3.55
2022-08-01T20:39:30.638Z,4.53
2022-08-01T20:42:08.429Z,4.20
2022-08-01T20:44:42.412Z,7.22
2022-08-01T20:47:11.733Z,10.43
2022-08-01T20:49:44.678Z,5.80
2022-08-01T20:52:17.420Z,5.25
2022-08-01T20:54:46.310Z,5.38
2022-08-01T20:57:27.885Z,4.05
2022-08-01T21:00:07.425Z,3.63
2022-08-01T21:02:51.823Z,3.72
2022-08-01T21:05:55.847Z,5.05
2022-08-01T21:08:44.913Z,4.43
2022-08-01T21:11:20.245Z,4.10
2022-08-01T21:13:51.780Z,3.90
2022-08-01T21:16:38.865Z,3.60
2022-08-01T21:19:25.741Z,3.22
2022-08-01T21:22:11.450Z,3.60
2022-08-01T21:24:58.996Z,3.20
2022-08-01T21:27:33.101Z,2.92
2022-08-01T21:30:08.776Z,2.40
2022-08-01T21:32:48.069Z,2.10
2022-08-01T21:35:18.908Z,2.30
2022-08-01T21:37:52.493Z,2.17
2022-08-01T21:40:24.567Z,2.10
2022-08-01T21:42:55.225Z,2.15
2022-08-01T21:45:27.515Z,2.45
2022-08-01T21:47:58.062Z,2.40
2022-08-01T21:50:26.895Z,2.20
2022-08-01T21:53:19.097Z,1.92
2022-08-01T21:56:15.211Z,1.85
2022-08-01T21:59:18.685Z,1.80
2022-08-01T22:02:36.940Z,2.00
2022-08-01T22:05:12.724Z,1.75
2022-08-01T22:07:52.949Z,1.50
2022-08-01T22:10:21.633Z,1.63
2022-08-01T22:12:50.291Z,1.63
2022-08-01T22:15:24.256Z,1.95
2022-08-01T22:17:52.901Z,1.98
2022-08-01T22:20:23.187Z,2.25
2022-08-01T22:22:52.819Z,1.80
2022-08-01T22:25:22.921Z,1.98
2022-08-01T22:30:42.557Z,2.17
2022-08-01T22:33:16.476Z,2.53
2022-08-01T22:35:49.252Z,2.60
2022-08-01T22:38:24.963Z,2.33
2022-08-01T22:41:06.361Z,2.03
2022-08-01T22:43:55.498Z,2.17
2022-08-01T22:47:21.904Z,1.83
2022-08-01T22:50:07.124Z,1.83
2022-08-01T22:52:54.023Z,1.98
2022-08-01T22:55:24.664Z,1.73
2022-08-01T22:58:17.400Z,1.85
2022-08-01T23:00:53.834Z,2.10
2022-08-01T23:03:40.633Z,1.70
2022-08-01T23:06:11.254Z,1.67
2022-08-01T23:08:41.501Z,1.70
2022-08-01T23:11:09.454Z,1.70
2022-08-01T23:13:38.267Z,1.63
2022-08-01T23:16:06.166Z,1.80
2022-08-01T23:18:34.254Z,1.95
2022-08-01T23:21:03.489Z,1.58
2022-08-01T23:23:34.172Z,1.30
2022-08-01T23:26:01.956Z,1.88
2022-08-01T23:28:29.907Z,1.50
2022-08-01T23:30:59.070Z,2.58
2022-08-01T23:33:26.921Z,2.05
2022-08-01T23:35:54.938Z,2.47
2022-08-01T23:38:22.919Z,2.28
2022-08-01T23:40:51.166Z,2.10
2022-08-01T23:43:18.974Z,2.28
2022-08-01T23:46:04.533Z,2.10
2022-08-01T23:48:35.362Z,1.63
2022-08-01T23:51:06.097Z,3.35
2022-08-01T23:53:37.618Z,2.70
2022-08-01T23:56:06.401Z,2.30
2022-08-01T23:58:34.097Z,2.30
